Dell, Arkansas
Current Conditions -  °F | °C
As of 6:53 PM on Monday 24 Nov 2014 (Local Time) from KHKA Reporting Station
Clear Clear  
Wind Chill: 51°   Ceiling: Unl
Heat Index: 51°   Visibility: 10mi
Dew Point: 38°   Wind: 7mph
Humidity: 61%   Direction: 210°SSW
Pressure: 29.97"   Gusts: NA
Location:  35.86°N, 90.04°W
Report Text: KHKA 250053Z AUTO 21006KT 10SM CLR 11/03 A2997 RMK AO2 SLP148 T01060033 $
Loading
Personal Weather Stations






























Interactive Weather Map New forecast layout! Learn more

10-Day Weather Forecast

Advertisements
Track Severe Weather on mobile